Time;durP1;ratioP1;P1;durP2;ratioP2;P2;SDS_P1;SDS_P2;PMS_P1;PMS_P2;Temp;Humidity;BMP_temperature;BMP_pressure;BME280_temperature;BME280_humidity;BME280_pressure;Samples;Min_cycle;Max_cycle;Signal;HPM_P1;HPM_P2
2021/08/08 00:01:00;;;;;;;12.55;3.08;;;16.20;90.10;;;;;;5055858;28;20598;-89
2021/08/08 00:03:28;;;;;;;7.30;3.30;;;16.30;89.70;;;;;;5055836;28;20666;-89
2021/08/08 00:05:53;;;;;;;6.97;2.97;;;16.30;89.30;;;;;;5073650;28;20187;-88
2021/08/08 00:08:20;;;;;;;6.22;2.95;;;16.30;88.70;;;;;;5073457;28;20278;-88
2021/08/08 00:10:47;;;;;;;6.28;3.35;;;16.50;88.20;;;;;;5055645;28;20264;-88
2021/08/08 00:13:14;;;;;;;7.82;2.88;;;16.50;88.10;;;;;;5073449;28;20175;-89
2021/08/08 00:15:39;;;;;;;6.22;2.95;;;16.40;88.50;;;;;;5055664;28;20202;-88
2021/08/08 00:18:06;;;;;;;9.43;3.60;;;16.30;88.80;;;;;;5055466;28;20175;-88
2021/08/08 00:20:33;;;;;;;6.55;3.20;;;16.40;88.90;;;;;;5073403;28;20232;-89
2021/08/08 00:22:59;;;;;;;6.32;3.60;;;16.40;89.10;;;;;;5055633;28;20175;-88
2021/08/08 00:25:25;;;;;;;7.85;3.85;;;16.40;89.50;;;;;;5055376;28;20195;-89
2021/08/08 00:27:51;;;;;;;5.85;3.95;;;16.40;89.40;;;;;;5055314;28;20171;-89
2021/08/08 00:30:17;;;;;;;10.02;4.13;;;16.50;89.40;;;;;;5073230;28;20180;-89
2021/08/08 00:32:43;;;;;;;3.95;3.38;;;16.40;89.40;;;;;;5055636;28;20178;-89
2021/08/08 00:35:10;;;;;;;8.40;3.88;;;16.50;89.20;;;;;;5055258;28;20545;-89
2021/08/08 00:37:37;;;;;;;6.63;4.20;;;16.50;89.20;;;;;;5056119;28;20199;-89
2021/08/08 00:40:04;;;;;;;8.93;3.80;;;16.50;89.30;;;;;;5055192;28;20183;-89
2021/08/08 00:42:29;;;;;;;7.45;3.72;;;16.40;89.60;;;;;;5073267;28;20198;-89
2021/08/08 00:44:56;;;;;;;4.60;3.72;;;16.40;89.60;;;;;;5077614;28;20234;-90
2021/08/08 00:47:22;;;;;;;10.52;3.97;;;16.40;89.70;;;;;;5077412;28;20174;-90
2021/08/08 00:49:48;;;;;;;8.55;3.65;;;16.40;89.80;;;;;;5077781;28;20281;-89
2021/08/08 00:52:14;;;;;;;5.50;3.78;;;16.40;89.80;;;;;;5077432;28;20216;-89
2021/08/08 00:54:40;;;;;;;6.72;4.00;;;16.50;89.80;;;;;;5059588;28;20191;-89
2021/08/08 00:57:06;;;;;;;9.70;3.67;;;16.40;89.70;;;;;;5059044;28;20175;-89
2021/08/08 00:59:31;;;;;;;16.38;4.32;;;16.40;89.70;;;;;;5059856;28;20182;-89
2021/08/08 01:02:00;;;;;;;9.20;4.18;;;16.30;89.80;;;;;;5059042;28;20552;-89
2021/08/08 01:04:39;;;;;;;11.52;3.92;;;16.30;89.90;;;;;;5059236;28;20191;-89
2021/08/08 01:07:18;;;;;;;8.90;3.55;;;16.20;89.80;;;;;;5059261;28;20638;-89
2021/08/08 01:09:49;;;;;;;7.68;3.97;;;16.20;89.60;;;;;;5076864;28;20191;-89
2021/08/08 01:12:15;;;;;;;6.70;3.80;;;16.30;89.60;;;;;;5059494;28;20174;-89
2021/08/08 01:14:41;;;;;;;7.22;3.03;;;16.30;89.50;;;;;;5058723;28;20592;-89
2021/08/08 01:17:09;;;;;;;4.82;3.03;;;16.30;89.20;;;;;;5076958;28;20167;-87
2021/08/08 01:19:58;;;;;;;7.78;3.22;;;16.20;89.20;;;;;;5058743;28;20186;-88
2021/08/08 01:22:29;;;;;;;6.03;3.45;;;16.20;89.10;;;;;;5046615;28;20187;-89
2021/08/08 01:24:56;;;;;;;7.50;3.30;;;16.10;89.10;;;;;;5058514;28;20254;-89
2021/08/08 01:27:22;;;;;;;9.70;3.47;;;16.00;89.00;;;;;;5076659;28;20197;-88
2021/08/08 01:29:48;;;;;;;6.82;4.65;;;15.80;89.40;;;;;;5076326;28;20227;-89
2021/08/08 01:32:14;;;;;;;8.57;5.55;;;15.80;89.70;;;;;;5058516;28;20222;-89
2021/08/08 01:34:40;;;;;;;7.75;5.65;;;15.80;89.70;;;;;;5076253;28;20190;-89
2021/08/08 01:37:05;;;;;;;10.73;6.53;;;15.70;89.70;;;;;;5058403;28;20519;-89
2021/08/08 01:39:34;;;;;;;11.85;5.47;;;15.70;89.60;;;;;;5058293;28;20215;-89
2021/08/08 01:42:07;;;;;;;13.02;4.55;;;15.70;89.50;;;;;;5058330;28;20260;-89
2021/08/08 01:44:38;;;;;;;9.05;4.30;;;15.60;89.50;;;;;;5058088;28;20569;-89
2021/08/08 01:47:05;;;;;;;6.13;4.28;;;15.40;90.10;;;;;;5058197;28;20195;-89
2021/08/08 01:49:33;;;;;;;15.85;4.65;;;15.40;90.30;;;;;;5058070;28;20211;-89
2021/08/08 01:51:59;;;;;;;8.88;4.57;;;15.40;90.30;;;;;;5058091;28;20167;-89
2021/08/08 01:54:25;;;;;;;7.75;4.75;;;15.40;90.30;;;;;;5057874;28;20226;-88
2021/08/08 01:56:51;;;;;;;14.80;4.60;;;15.30;90.20;;;;;;5058124;28;20176;-89
2021/08/08 01:59:18;;;;;;;16.13;4.35;;;15.40;90.20;;;;;;5058017;28;20176;-89
2021/08/08 02:01:44;;;;;;;15.05;4.80;;;15.30;90.20;;;;;;5057872;28;20218;-89
2021/08/08 02:04:26;;;;;;;12.98;4.88;;;15.30;90.30;;;;;;5058171;28;20206;-89
2021/08/08 02:06:53;;;;;;;8.95;4.80;;;15.20;90.40;;;;;;5075761;28;20179;-89
2021/08/08 02:09:19;;;;;;;11.15;4.68;;;15.20;90.40;;;;;;5076018;28;20227;-89
2021/08/08 02:11:45;;;;;;;12.35;4.40;;;15.10;90.50;;;;;;5075931;28;20163;-89
2021/08/08 02:14:11;;;;;;;6.65;4.43;;;15.10;90.60;;;;;;5057610;28;20262;-89
2021/08/08 02:16:38;;;;;;;7.60;4.70;;;15.10;90.60;;;;;;5075869;28;20534;-89
2021/08/08 02:19:04;;;;;;;15.60;5.10;;;15.10;90.60;;;;;;5075481;28;20175;-89
2021/08/08 02:21:30;;;;;;;17.17;5.10;;;15.00;90.80;;;;;;5057854;28;20171;-89
2021/08/08 02:23:57;;;;;;;8.00;4.90;;;15.00;90.80;;;;;;5075417;28;20178;-89
2021/08/08 02:26:23;;;;;;;10.63;5.10;;;15.00;90.70;;;;;;5057425;28;20321;-89
2021/08/08 02:28:48;;;;;;;6.50;4.70;;;14.90;90.80;;;;;;5075303;28;20698;-89
2021/08/08 02:31:17;;;;;;;6.60;4.57;;;14.90;90.90;;;;;;5075269;28;20170;-89
2021/08/08 02:33:44;;;;;;;10.87;5.23;;;14.80;90.90;;;;;;5075485;28;20174;-89
2021/08/08 02:36:10;;;;;;;10.70;4.33;;;15.00;90.80;;;;;;5057266;28;20201;-89
2021/08/08 02:38:35;;;;;;;7.83;4.30;;;14.90;90.50;;;;;;5075144;28;20171;-89
2021/08/08 02:41:01;;;;;;;8.47;4.17;;;14.90;90.40;;;;;;5057357;28;20641;-89
2021/08/08 02:43:26;;;;;;;10.00;4.47;;;14.90;90.30;;;;;;5057537;28;20727;-89
2021/08/08 02:45:52;;;;;;;16.00;4.40;;;14.90;90.30;;;;;;5075513;28;20297;-88
2021/08/08 02:48:19;;;;;;;9.97;3.53;;;14.90;90.20;;;;;;5075083;28;20195;-88
2021/08/08 02:50:44;;;;;;;11.10;4.07;;;14.80;90.10;;;;;;5056983;28;20175;-88
2021/08/08 02:53:10;;;;;;;15.93;3.77;;;14.80;90.00;;;;;;5074817;28;20174;-88
2021/08/08 02:55:36;;;;;;;8.67;3.37;;;14.80;90.10;;;;;;5057140;28;20556;-88
2021/08/08 02:58:02;;;;;;;6.93;3.00;;;14.70;90.20;;;;;;5074970;28;20571;-88
2021/08/08 03:00:27;;;;;;;5.43;3.37;;;14.60;90.30;;;;;;5057614;28;20646;-88
2021/08/08 03:02:53;;;;;;;8.50;3.00;;;14.50;90.50;;;;;;5057831;28;20269;-88
2021/08/08 03:05:19;;;;;;;7.73;3.07;;;14.60;90.50;;;;;;5074224;28;20191;-88
2021/08/08 03:07:44;;;;;;;6.87;3.57;;;14.60;90.50;;;;;;5074513;28;20168;-88
2021/08/08 03:10:10;;;;;;;7.20;3.13;;;14.60;90.50;;;;;;5056642;28;20570;-88
2021/08/08 03:12:36;;;;;;;5.03;3.57;;;14.60;90.60;;;;;;5056535;28;20172;-88
2021/08/08 03:15:03;;;;;;;6.97;2.83;;;14.60;90.70;;;;;;5074340;28;20195;-88
2021/08/08 03:17:29;;;;;;;8.90;3.30;;;14.60;90.60;;;;;;5056739;28;20190;-88
2021/08/08 03:19:54;;;;;;;4.20;3.20;;;14.70;90.60;;;;;;5056490;28;20647;-88
2021/08/08 03:22:20;;;;;;;6.37;3.23;;;14.70;90.40;;;;;;5056436;28;20575;-88
2021/08/08 03:24:45;;;;;;;5.87;3.50;;;14.70;90.50;;;;;;5056532;28;20199;-88
2021/08/08 03:27:11;;;;;;;10.13;3.70;;;14.70;90.50;;;;;;5056627;28;20510;-88
2021/08/08 03:29:37;;;;;;;6.50;3.80;;;14.70;90.50;;;;;;5074322;28;20191;-88
2021/08/08 03:32:03;;;;;;;10.50;3.77;;;14.70;90.50;;;;;;5056686;28;20167;-88
2021/08/08 03:34:30;;;;;;;12.43;3.47;;;14.80;90.40;;;;;;5056396;28;20188;-88
2021/08/08 03:36:55;;;;;;;5.83;3.40;;;14.80;90.30;;;;;;5056142;28;20175;-88
2021/08/08 03:39:25;;;;;;;9.27;5.13;;;14.80;90.40;;;;;;5074232;28;20242;-88
2021/08/08 03:41:54;;;;;;;6.73;3.70;;;14.80;90.40;;;;;;5056061;28;20178;-88
2021/08/08 03:44:20;;;;;;;8.60;3.20;;;14.80;90.40;;;;;;5055714;28;20206;-88
2021/08/08 03:46:46;;;;;;;8.70;3.40;;;14.80;90.50;;;;;;5074417;28;20199;-88
2021/08/08 03:49:12;;;;;;;9.00;3.70;;;14.80;90.50;;;;;;5056076;28;20285;-88
2021/08/08 03:51:38;;;;;;;6.97;3.17;;;14.80;90.60;;;;;;5073792;28;20235;-88
2021/08/08 03:54:04;;;;;;;4.40;3.33;;;14.80;90.50;;;;;;5055828;28;20172;-88
2021/08/08 03:56:30;;;;;;;7.50;3.43;;;14.80;90.60;;;;;;5055950;28;20179;-88
2021/08/08 03:58:55;;;;;;;6.70;3.27;;;14.80;90.50;;;;;;5074048;28;20506;-88
2021/08/08 04:01:21;;;;;;;10.47;3.97;;;14.80;90.40;;;;;;5055798;28;20178;-88
2021/08/08 04:03:46;;;;;;;7.20;3.40;;;14.90;90.00;;;;;;5056256;28;20221;-88
2021/08/08 04:06:12;;;;;;;7.10;3.57;;;14.90;89.90;;;;;;5055870;28;20254;-88
2021/08/08 04:08:38;;;;;;;6.00;3.13;;;15.00;89.90;;;;;;5055578;28;20207;-88
2021/08/08 04:11:03;;;;;;;6.83;3.33;;;15.00;90.00;;;;;;5055621;28;20175;-88
2021/08/08 04:13:29;;;;;;;7.93;3.07;;;15.00;89.70;;;;;;5055500;28;20168;-88
2021/08/08 04:15:55;;;;;;;7.27;3.13;;;15.10;89.80;;;;;;5055453;28;20217;-88
2021/08/08 04:18:21;;;;;;;3.20;2.90;;;15.10;89.50;;;;;;5055303;28;20267;-88
2021/08/08 04:20:46;;;;;;;7.00;3.17;;;15.10;89.50;;;;;;5055476;28;20541;-88
2021/08/08 04:23:12;;;;;;;4.50;3.20;;;15.20;89.50;;;;;;5055792;28;20213;-88
2021/08/08 04:25:38;;;;;;;3.80;3.10;;;15.10;89.60;;;;;;5073188;28;20240;-88
2021/08/08 04:28:06;;;;;;;4.20;3.10;;;15.20;89.90;;;;;;5073484;28;20579;-88
2021/08/08 04:30:33;;;;;;;8.33;3.10;;;15.20;89.90;;;;;;5073255;28;20175;-88
2021/08/08 04:32:59;;;;;;;8.20;3.13;;;15.10;89.90;;;;;;5055913;28;20177;-88
2021/08/08 04:35:25;;;;;;;6.43;3.27;;;15.10;89.90;;;;;;5073122;28;20187;-88
2021/08/08 04:37:50;;;;;;;6.93;3.30;;;15.10;89.80;;;;;;5055237;28;20178;-88
2021/08/08 04:40:16;;;;;;;7.17;3.50;;;15.20;89.70;;;;;;5055088;28;20190;-88
2021/08/08 04:42:42;;;;;;;9.97;3.80;;;15.20;89.50;;;;;;5055336;28;20189;-88
2021/08/08 04:45:08;;;;;;;8.73;3.03;;;15.20;89.70;;;;;;5072909;28;20218;-88
2021/08/08 04:47:33;;;;;;;4.33;2.83;;;15.30;89.80;;;;;;5055121;28;20179;-88
2021/08/08 04:49:59;;;;;;;6.30;3.40;;;15.30;89.80;;;;;;5055042;28;20203;-88
2021/08/08 04:52:25;;;;;;;7.33;2.77;;;15.40;89.70;;;;;;5055409;28;20168;-88
2021/08/08 04:54:50;;;;;;;5.10;3.00;;;15.40;89.40;;;;;;5073319;28;20241;-88
2021/08/08 04:57:16;;;;;;;7.20;3.17;;;15.40;89.20;;;;;;5055349;28;20178;-88
2021/08/08 04:59:42;;;;;;;6.50;3.30;;;15.50;89.20;;;;;;5055112;28;20179;-88
2021/08/08 05:02:07;;;;;;;5.37;2.73;;;15.40;89.30;;;;;;5055044;28;20589;-88
2021/08/08 05:04:34;;;;;;;5.77;3.10;;;15.50;89.30;;;;;;5054921;28;20229;-88
2021/08/08 05:06:59;;;;;;;6.30;3.20;;;15.50;89.40;;;;;;5054899;28;20262;-88
2021/08/08 05:09:25;;;;;;;8.97;3.63;;;15.50;89.70;;;;;;5055241;28;20840;-87
2021/08/08 05:11:51;;;;;;;9.13;3.30;;;15.50;89.30;;;;;;5072914;28;20168;-88
2021/08/08 05:14:16;;;;;;;3.93;3.00;;;15.60;89.10;;;;;;5054799;28;20248;-88
2021/08/08 05:16:42;;;;;;;6.40;3.87;;;15.50;89.00;;;;;;5054861;28;20309;-88
2021/08/08 05:19:08;;;;;;;7.73;2.93;;;15.60;89.60;;;;;;5054909;28;20194;-88
2021/08/08 05:21:33;;;;;;;3.90;3.40;;;15.50;89.30;;;;;;5054858;28;20206;-88
2021/08/08 05:23:59;;;;;;;4.60;3.10;;;15.50;89.60;;;;;;5055277;28;20179;-88
2021/08/08 05:26:25;;;;;;;3.77;3.37;;;15.60;89.70;;;;;;5054754;28;20677;-87
2021/08/08 05:28:50;;;;;;;6.43;3.93;;;15.60;89.60;;;;;;5055408;28;20275;-87
2021/08/08 05:31:16;;;;;;;4.60;3.60;;;15.50;89.70;;;;;;5058786;28;20190;-87
2021/08/08 05:33:42;;;;;;;6.13;3.77;;;15.60;89.60;;;;;;5058453;28;20179;-87
2021/08/08 05:36:07;;;;;;;6.83;4.00;;;15.60;89.60;;;;;;5076286;28;20572;-89
2021/08/08 05:38:33;;;;;;;4.13;3.13;;;15.60;89.60;;;;;;5058702;28;20175;-88
2021/08/08 05:40:59;;;;;;;5.87;3.50;;;15.60;89.60;;;;;;5058491;28;20206;-89
2021/08/08 05:43:24;;;;;;;6.53;3.00;;;15.70;89.50;;;;;;5076273;28;20230;-88
2021/08/08 05:45:51;;;;;;;7.07;3.33;;;15.70;89.50;;;;;;5058827;28;20215;-88
2021/08/08 05:48:16;;;;;;;4.77;3.17;;;15.80;89.10;;;;;;5058218;28;20175;-88
2021/08/08 05:50:42;;;;;;;5.93;3.23;;;15.80;88.80;;;;;;5076050;28;20171;-88
2021/08/08 05:53:08;;;;;;;4.33;2.67;;;15.80;88.80;;;;;;5058478;28;20171;-88
2021/08/08 05:55:42;;;;;;;7.57;3.07;;;15.80;88.80;;;;;;5058277;28;20697;-88
2021/08/08 05:58:07;;;;;;;4.80;2.77;;;15.80;89.30;;;;;;5075889;28;20158;-88
2021/08/08 06:00:33;;;;;;;7.27;2.83;;;15.80;89.00;;;;;;5058034;28;20171;-87
2021/08/08 06:03:09;;;;;;;2.73;2.30;;;15.70;89.50;;;;;;5058289;28;20171;-88
2021/08/08 06:05:35;;;;;;;4.27;2.53;;;15.70;89.40;;;;;;5075740;28;20222;-87
2021/08/08 06:08:01;;;;;;;4.27;3.10;;;15.70;89.70;;;;;;5058115;28;20172;-88
2021/08/08 06:10:27;;;;;;;4.67;3.07;;;15.70;90.10;;;;;;5057730;28;20679;-87
2021/08/08 06:12:53;;;;;;;3.40;3.10;;;15.60;90.20;;;;;;5075817;28;20176;-87
2021/08/08 06:15:19;;;;;;;4.30;3.10;;;15.70;90.60;;;;;;5075705;28;20187;-88
2021/08/08 06:17:44;;;;;;;3.83;3.43;;;15.50;91.10;;;;;;5075578;28;20167;-88
2021/08/08 06:20:10;;;;;;;3.70;3.40;;;15.40;91.70;;;;;;5057550;28;20278;-88
2021/08/08 06:22:36;;;;;;;6.77;3.33;;;15.30;91.70;;;;;;5057534;28;20589;-88
2021/08/08 06:25:02;;;;;;;3.63;3.33;;;15.30;92.00;;;;;;5057466;28;20202;-88
2021/08/08 06:27:28;;;;;;;5.17;3.90;;;15.30;92.00;;;;;;5075391;28;20177;-89
2021/08/08 06:29:53;;;;;;;4.50;3.93;;;15.30;91.70;;;;;;5057672;28;20199;-89
2021/08/08 06:32:19;;;;;;;4.63;4.23;;;15.30;91.70;;;;;;5058104;28;20175;-90
2021/08/08 06:34:45;;;;;;;5.20;4.13;;;15.30;91.90;;;;;;5077161;28;20548;-90
2021/08/08 06:37:10;;;;;;;5.07;4.50;;;15.40;91.60;;;;;;5059590;28;20179;-90
2021/08/08 06:39:36;;;;;;;5.03;4.53;;;15.40;91.70;;;;;;5076934;28;20246;-90
2021/08/08 06:42:02;;;;;;;5.10;4.60;;;15.40;91.70;;;;;;5075796;28;20675;-90
2021/08/08 06:44:28;;;;;;;5.00;4.03;;;15.50;91.70;;;;;;5058978;28;20260;-90
2021/08/08 06:46:55;;;;;;;5.37;4.87;;;15.50;91.60;;;;;;5077245;28;20167;-90
2021/08/08 06:49:20;;;;;;;5.73;5.00;;;15.60;91.80;;;;;;5077134;28;20191;-90
2021/08/08 06:51:46;;;;;;;6.80;5.73;;;15.60;91.70;;;;;;5077272;28;20714;-89
2021/08/08 06:54:12;;;;;;;9.00;5.60;;;15.60;91.70;;;;;;5058856;28;20312;-90
2021/08/08 06:56:39;;;;;;;6.37;5.43;;;15.60;91.80;;;;;;5059566;28;20710;-90
2021/08/08 06:59:04;;;;;;;8.23;6.05;;;15.60;91.90;;;;;;5076592;28;20168;-90
2021/08/08 07:01:30;;;;;;;7.27;6.33;;;15.70;91.70;;;;;;5057034;28;20179;-88
2021/08/08 07:03:56;;;;;;;7.70;6.33;;;15.70;91.80;;;;;;5074908;28;20206;-89
2021/08/08 07:06:22;;;;;;;6.60;5.90;;;15.70;91.70;;;;;;5074945;28;20214;-89
2021/08/08 07:08:48;;;;;;;8.40;6.40;;;15.80;91.80;;;;;;5074937;28;20561;-89
2021/08/08 07:11:13;;;;;;;9.30;6.17;;;15.70;91.80;;;;;;5056665;28;20183;-89
2021/08/08 07:13:40;;;;;;;6.43;5.83;;;15.70;91.90;;;;;;5074518;28;20170;-89
2021/08/08 07:16:07;;;;;;;8.93;6.40;;;15.80;91.80;;;;;;5056829;28;20230;-89
2021/08/08 07:18:33;;;;;;;6.23;5.63;;;15.70;91.80;;;;;;5074541;28;20175;-89
2021/08/08 07:20:59;;;;;;;7.03;5.90;;;15.80;91.80;;;;;;5074351;28;20222;-89
2021/08/08 07:23:25;;;;;;;7.50;5.70;;;15.80;91.80;;;;;;5056508;28;20663;-89
2021/08/08 07:25:50;;;;;;;7.63;5.80;;;15.80;91.60;;;;;;5074174;28;20196;-89
2021/08/08 07:28:16;;;;;;;7.85;6.05;;;15.80;91.70;;;;;;5056407;28;20547;-89
2021/08/08 07:30:42;;;;;;;9.43;6.53;;;15.90;91.90;;;;;;5074192;28;20217;-89
2021/08/08 07:33:08;;;;;;;7.00;6.35;;;15.90;92.00;;;;;;5074408;28;20164;-88
2021/08/08 07:35:36;;;;;;;6.90;5.93;;;15.90;92.00;;;;;;5074241;28;20281;-89
2021/08/08 07:38:03;;;;;;;9.60;5.83;;;15.90;92.20;;;;;;5074001;28;20246;-88
2021/08/08 07:40:29;;;;;;;6.17;5.57;;;15.80;92.30;;;;;;5056175;28;20254;-89
2021/08/08 07:42:55;;;;;;;7.07;5.63;;;15.80;92.50;;;;;;5074055;28;20210;-90
2021/08/08 07:45:21;;;;;;;6.43;5.20;;;15.80;92.60;;;;;;5074020;28;20205;-90
2021/08/08 07:47:47;;;;;;;6.27;5.77;;;15.80;92.60;;;;;;5074173;28;20232;-89
2021/08/08 07:50:13;;;;;;;7.33;5.93;;;15.80;92.90;;;;;;5055809;28;20671;-88
2021/08/08 07:52:38;;;;;;;7.57;5.83;;;15.80;93.10;;;;;;5055763;28;20171;-89
2021/08/08 07:55:06;;;;;;;8.73;6.03;;;15.70;93.00;;;;;;5055728;28;20191;-89
2021/08/08 07:57:32;;;;;;;6.80;6.30;;;15.80;93.10;;;;;;5055807;28;20202;-89
2021/08/08 07:59:58;;;;;;;8.73;7.72;;;15.80;93.00;;;;;;5055816;28;20224;-89
2021/08/08 08:02:24;;;;;;;9.43;8.10;;;15.90;92.90;;;;;;5073716;28;20179;-89
2021/08/08 08:04:51;;;;;;;9.93;8.75;;;16.00;92.80;;;;;;5055639;28;20535;-90
2021/08/08 08:07:17;;;;;;;12.47;10.40;;;16.10;92.60;;;;;;5073657;28;20193;-90
2021/08/08 08:09:42;;;;;;;15.80;10.37;;;16.20;92.50;;;;;;5055648;28;20677;-89
2021/08/08 08:12:08;;;;;;;11.37;10.13;;;16.20;92.20;;;;;;5073442;28;20168;-89
2021/08/08 08:14:34;;;;;;;11.63;9.90;;;16.30;92.20;;;;;;5056570;28;20191;-90
2021/08/08 08:17:00;;;;;;;12.32;9.93;;;16.50;92.30;;;;;;5073421;28;20536;-89
2021/08/08 08:19:26;;;;;;;10.48;9.43;;;16.50;92.10;;;;;;5055525;28;20175;-89
2021/08/08 08:21:51;;;;;;;10.45;9.52;;;16.50;91.80;;;;;;5073518;28;20694;-89
2021/08/08 08:24:17;;;;;;;10.50;9.23;;;16.60;91.50;;;;;;5073647;28;20167;-89
2021/08/08 08:26:43;;;;;;;11.43;9.30;;;16.70;91.60;;;;;;5055297;28;20218;-90
2021/08/08 08:29:08;;;;;;;11.38;9.23;;;16.70;91.70;;;;;;5073534;28;20199;-89
2021/08/08 08:31:35;;;;;;;12.45;9.35;;;16.80;91.20;;;;;;5073205;28;20651;-89
2021/08/08 08:34:01;;;;;;;14.60;8.90;;;17.00;91.30;;;;;;5073215;28;20700;-89
2021/08/08 08:36:26;;;;;;;10.77;8.93;;;16.90;91.00;;;;;;5073568;28;20647;-89
2021/08/08 08:38:53;;;;;;;13.93;8.48;;;16.90;91.00;;;;;;5073602;28;20217;-90
2021/08/08 08:41:25;;;;;;;8.70;7.95;;;16.90;90.80;;;;;;5073275;28;20199;-89
2021/08/08 08:43:51;;;;;;;8.60;7.88;;;16.90;90.70;;;;;;5073410;28;20179;-89
2021/08/08 08:46:17;;;;;;;8.80;7.82;;;16.90;90.70;;;;;;5078902;23;20226;-87
2021/08/08 08:48:43;;;;;;;9.50;8.63;;;17.00;90.60;;;;;;5055175;28;20639;-88
2021/08/08 08:51:10;;;;;;;9.43;7.28;;;17.00;90.60;;;;;;5073050;28;20171;-88
2021/08/08 08:53:37;;;;;;;8.40;7.18;;;17.20;90.40;;;;;;5072970;28;20242;-87
2021/08/08 08:56:03;;;;;;;8.05;7.25;;;17.30;89.40;;;;;;5071702;28;20171;-87
2021/08/08 08:58:31;;;;;;;9.70;6.78;;;17.50;89.60;;;;;;5072792;28;20643;-87
2021/08/08 09:00:57;;;;;;;11.25;6.40;;;17.60;89.40;;;;;;5055077;28;20595;-87
2021/08/08 09:03:22;;;;;;;8.18;5.93;;;17.60;89.00;;;;;;5073069;28;20171;-87
2021/08/08 09:05:48;;;;;;;8.32;6.38;;;17.50;88.40;;;;;;5076887;28;20195;-87
2021/08/08 09:08:14;;;;;;;10.25;6.25;;;17.60;88.90;;;;;;5059064;28;20232;-87
2021/08/08 09:10:40;;;;;;;8.85;6.05;;;17.40;88.80;;;;;;5058933;28;20274;-87
2021/08/08 09:13:06;;;;;;;7.00;6.35;;;17.20;88.90;;;;;;5060369;28;20167;-87
2021/08/08 09:15:41;;;;;;;9.02;7.38;;;17.00;89.30;;;;;;5058868;28;20179;-87
2021/08/08 09:18:21;;;;;;;10.32;7.90;;;16.80;90.10;;;;;;5076874;28;20243;-87
2021/08/08 09:20:47;;;;;;;12.82;9.25;;;16.70;89.80;;;;;;5058877;28;20155;-88
2021/08/08 09:23:14;;;;;;;12.43;7.90;;;16.70;90.50;;;;;;5077344;28;20175;-87
2021/08/08 09:25:56;;;;;;;9.95;7.20;;;16.80;89.60;;;;;;5076557;28;20553;-88
2021/08/08 09:28:31;;;;;;;10.30;7.15;;;16.80;88.90;;;;;;5058550;28;20179;-86
2021/08/08 09:30:57;;;;;;;9.40;7.00;;;16.80;90.00;;;;;;5058618;28;20545;-86
2021/08/08 09:33:23;;;;;;;9.85;7.53;;;16.70;89.40;;;;;;5058420;28;20171;-87
2021/08/08 09:35:56;;;;;;;9.93;7.28;;;16.70;89.50;;;;;;5058359;28;20182;-87
2021/08/08 09:38:22;;;;;;;11.95;8.70;;;16.60;89.70;;;;;;5076263;28;20213;-87
2021/08/08 09:40:57;;;;;;;11.23;8.02;;;16.60;90.30;;;;;;5058660;28;20198;-87
2021/08/08 09:43:28;;;;;;;13.13;8.50;;;16.70;89.90;;;;;;5058281;28;20171;-87
2021/08/08 09:45:54;;;;;;;11.23;9.30;;;16.80;90.10;;;;;;5059430;28;20175;-87
2021/08/08 09:48:20;;;;;;;15.27;8.30;;;16.70;89.40;;;;;;5077132;28;20172;-87
2021/08/08 09:50:46;;;;;;;12.73;9.65;;;16.80;89.90;;;;;;5078286;28;20170;-88
2021/08/08 09:53:19;;;;;;;11.38;9.43;;;16.90;90.20;;;;;;5060543;28;20190;-87
2021/08/08 09:55:46;;;;;;;10.43;8.70;;;17.00;89.70;;;;;;5077628;28;20703;-87
2021/08/08 09:58:21;;;;;;;14.45;8.82;;;17.00;89.50;;;;;;5059155;28;20289;-87
2021/08/08 10:00:48;;;;;;;13.55;8.77;;;17.00;88.90;;;;;;5058908;28;20595;-87
2021/08/08 10:03:15;;;;;;;15.02;8.20;;;17.10;88.40;;;;;;5076346;28;20178;-87
2021/08/08 10:05:43;;;;;;;14.13;8.18;;;17.30;88.60;;;;;;5058173;28;20653;-87
2021/08/08 10:08:15;;;;;;;15.27;7.72;;;17.30;87.60;;;;;;5058294;28;20213;-87
2021/08/08 10:10:43;;;;;;;11.48;7.82;;;17.20;87.40;;;;;;5058160;28;20651;-87
2021/08/08 10:13:43;;;;;;;13.40;7.43;;;17.20;88.40;;;;;;5058089;28;20183;-87
2021/08/08 10:16:13;;;;;;;12.43;8.35;;;17.20;88.00;;;;;;5075833;28;20187;-87
2021/08/08 10:18:43;;;;;;;15.65;8.55;;;17.30;88.50;;;;;;5076142;28;20167;-87
2021/08/08 10:21:10;;;;;;;17.42;9.40;;;17.20;88.10;;;;;;5057872;28;20160;-87
2021/08/08 10:23:37;;;;;;;12.45;7.85;;;17.10;87.40;;;;;;5075627;28;20172;-87
2021/08/08 10:26:03;;;;;;;13.77;7.80;;;17.00;87.40;;;;;;5075630;28;20539;-87
2021/08/08 10:28:29;;;;;;;15.48;7.60;;;17.00;86.90;;;;;;5075618;28;20195;-87
2021/08/08 10:31:01;;;;;;;15.18;8.40;;;17.00;87.60;;;;;;5075784;28;20214;-87
2021/08/08 10:33:27;;;;;;;15.73;8.52;;;17.00;87.60;;;;;;5075742;28;20196;-87
2021/08/08 10:35:52;;;;;;;15.40;8.13;;;17.10;87.80;;;;;;5057372;28;20206;-88
2021/08/08 10:38:18;;;;;;;15.10;8.48;;;17.10;87.40;;;;;;5075803;28;20171;-87
2021/08/08 10:40:46;;;;;;;10.52;6.55;;;17.20;86.90;;;;;;5075396;28;20171;-87
2021/08/08 10:43:24;;;;;;;15.05;7.00;;;17.30;86.90;;;;;;5075503;28;20164;-87
2021/08/08 10:46:01;;;;;;;15.75;7.75;;;17.40;84.90;;;;;;5075490;28;20329;-86
2021/08/08 10:48:34;;;;;;;16.42;7.93;;;17.50;86.10;;;;;;5075936;28;20219;-86
2021/08/08 10:51:00;;;;;;;16.70;8.80;;;17.50;86.00;;;;;;5075471;28;20190;-85
2021/08/08 10:53:28;;;;;;;18.15;8.35;;;17.50;86.20;;;;;;5075166;28;20163;-86
2021/08/08 10:56:07;;;;;;;14.95;7.30;;;17.60;86.60;;;;;;5057299;28;20175;-85
2021/08/08 10:58:41;;;;;;;16.88;7.90;;;17.70;84.60;;;;;;5056855;28;20201;-85
2021/08/08 11:01:21;;;;;;;14.40;6.93;;;17.80;85.00;;;;;;5056891;28;20191;-86
2021/08/08 11:03:54;;;;;;;12.50;6.15;;;17.80;84.10;;;;;;5056841;28;20179;-86
2021/08/08 11:06:24;;;;;;;9.02;4.97;;;17.70;83.70;;;;;;5074800;28;20240;-85
2021/08/08 11:08:58;;;;;;;17.35;7.25;;;17.70;83.30;;;;;;5074656;28;20248;-86
2021/08/08 11:11:33;;;;;;;22.25;6.28;;;17.80;84.70;;;;;;5074980;28;20166;-86
2021/08/08 11:14:17;;;;;;;14.23;6.00;;;17.90;83.70;;;;;;5074893;28;20148;-86
2021/08/08 11:17:04;;;;;;;12.02;6.07;;;17.90;83.20;;;;;;5074398;28;20184;-85
2021/08/08 11:19:41;;;;;;;14.70;6.22;;;18.00;83.90;;;;;;5056650;28;20163;-86
2021/08/08 11:22:12;;;;;;;19.48;6.72;;;17.90;83.00;;;;;;5056448;28;20182;-86
2021/08/08 11:24:40;;;;;;;13.60;7.35;;;18.00;84.00;;;;;;5074253;28;20206;-86
2021/08/08 11:27:07;;;;;;;13.27;5.93;;;18.20;83.50;;;;;;5055718;28;20667;-86
2021/08/08 11:29:34;;;;;;;19.33;6.25;;;18.40;83.10;;;;;;5074348;28;20202;-86
2021/08/08 11:32:01;;;;;;;13.65;5.30;;;18.70;83.60;;;;;;5056232;28;20745;-85
2021/08/08 11:34:28;;;;;;;11.25;5.05;;;18.90;81.00;;;;;;5074101;28;20174;-86
2021/08/08 11:36:56;;;;;;;13.15;5.05;;;18.80;80.30;;;;;;5073962;28;20195;-88
2021/08/08 11:39:30;;;;;;;11.80;5.07;;;18.90;81.30;;;;;;5056113;28;20180;-86
2021/08/08 11:42:07;;;;;;;13.05;4.97;;;19.00;80.60;;;;;;5056158;28;20217;-86
2021/08/08 11:44:40;;;;;;;11.75;5.07;;;19.10;81.30;;;;;;5056039;28;20641;-87
2021/08/08 11:47:08;;;;;;;10.32;4.40;;;19.30;80.60;;;;;;5056025;28;20215;-85
2021/08/08 11:49:47;;;;;;;11.90;4.53;;;19.80;78.20;;;;;;5074186;28;20205;-85
2021/08/08 11:52:16;;;;;;;9.77;4.40;;;19.70;77.70;;;;;;5073845;28;20528;-85
2021/08/08 11:54:43;;;;;;;9.98;4.07;;;19.60;77.90;;;;;;5073883;28;20166;-86
2021/08/08 11:57:10;;;;;;;10.75;4.82;;;19.60;75.10;;;;;;5073562;28;20183;-85
2021/08/08 11:59:37;;;;;;;11.55;4.30;;;19.30;75.90;;;;;;5073848;28;20183;-84
2021/08/08 12:02:05;;;;;;;9.93;4.07;;;19.20;76.80;;;;;;5073515;28;20178;-84
2021/08/08 12:04:37;;;;;;;11.80;4.28;;;18.80;76.50;;;;;;5073519;28;20179;-84
2021/08/08 12:07:05;;;;;;;12.05;4.68;;;18.50;78.80;;;;;;5055533;28;20191;-84
2021/08/08 12:09:31;;;;;;;12.55;5.10;;;18.60;79.80;;;;;;5073391;28;20209;-84
2021/08/08 12:11:58;;;;;;;11.35;3.88;;;18.80;80.40;;;;;;5055810;28;20643;-84
2021/08/08 12:14:35;;;;;;;11.63;4.10;;;18.90;76.80;;;;;;5055416;28;20210;-85
2021/08/08 12:17:04;;;;;;;18.25;8.02;;;19.10;78.00;;;;;;5055627;28;20195;-85
2021/08/08 12:19:32;;;;;;;28.25;13.02;;;19.90;76.00;;;;;;5073498;28;20179;-85
2021/08/08 12:22:06;;;;;;;4.05;2.47;;;20.30;76.70;;;;;;5055320;28;20172;-85
2021/08/08 12:24:40;;;;;;;11.02;3.10;;;19.80;71.10;;;;;;5055569;28;20206;-86
2021/08/08 12:27:08;;;;;;;10.85;3.15;;;19.60;73.80;;;;;;5073439;28;20210;-85
2021/08/08 12:29:38;;;;;;;7.35;2.83;;;20.00;72.10;;;;;;5055609;28;20662;-87
2021/08/08 12:32:08;;;;;;;5.68;2.53;;;20.40;70.00;;;;;;5055200;28;20206;-86
2021/08/08 12:34:34;;;;;;;8.10;2.80;;;20.60;71.60;;;;;;5073226;28;20166;-86
2021/08/08 12:37:07;;;;;;;8.77;3.13;;;20.80;69.60;;;;;;5073668;28;20207;-86
2021/08/08 12:39:33;;;;;;;7.07;2.28;;;20.50;70.60;;;;;;5072550;28;20221;-86
2021/08/08 12:41:59;;;;;;;6.47;2.40;;;20.60;70.40;;;;;;5055590;28;20181;-86
2021/08/08 12:45:02;;;;;;;4.15;2.35;;;20.50;70.80;;;;;;5073447;28;20250;-86